Ana Sayfa
METAR-TAF:

METAR-TAF

Havaalanları :

Cebelitarık Havalimanı

Cebelitarık, Cebelitarık

Enlem: 36-09N, Boylam: 005-21W, yükseklik: 5 m

Güncel hava durumu gözlemi

Rapor saat 14:50 UTC de 1 saat ve 19 dakika önce yapıldı.
Rüzgar doğudan 15 kt
Sıcaklık 17°C
Nem 77%
Basınç 1019 hPa
Görüş mesafesi 10 km veya daha fazla

METAR: LXGB 051450Z AUTO 08015KT 9999 // SCT013/// BKN028/// 17/13 Q1019

Saat: 18:09 (16:09 UTC)

Tahmin

Rapor saat 13:25 UTC de 2 saat ve 44 dakika önce yapıldı.
Ayın 05'si saat 15 UTC'den ayın 05'si saat 23 UTC'ye kadar geçerli Tahmin
Rüzgar doğudan 12 kt
Görüş mesafesi 10 km veya daha fazla
2000 ft yükseklikte parçalı çok bulutlu
Olasılık 40% :
Geçici
ayın 05'si saat 15 UTC'den ayın 05'si saat 23 UTC'ye kadar
1400 ft yükseklikte parçalı çok bulutlu

TAF: LXGB 051325Z 0515/0523 08012KT 9999 BKN020 PROB40 TEMPO 0515/0523 BKN014

4.000'den fazla havaalanı için hava durumu gözlemleri ve tahminleri (METAR ve TAF raporları).

Kullanılabilir istasyonlar harita üzerinde sarı ve kırmızı noktalarla gösterilir.

İstasyonun adını görmek için fareyi noktanın üzerinde gezdirin.

Sonrasında hava gözlem ve tahminlerini görmek için tıklayın.

Haritayı değiştirmek için: yaklaştırmak için siyah artı işaretli yeşil düğmeye ve uzaklaştırmak için de eksi işaretli düğmeye hızla tıklayın; bitişik haritalar için yeşil okları kullanın.


METAR-TAF: